Beloit, Wisconsin
Current Conditions -  °F | °C
As of 10:45 AM on Friday 24 Oct 2014 (Local Time) from KJVL Reporting Station
Haze Haze  
Wind Chill: 52°   Ceiling: 300
Heat Index: 52°   Visibility: 2mi
Dew Point: 48°   Wind: 3mph
Humidity: 88%   Direction: 220°SW
Pressure: 30.05"   Gusts: NA
Location:  42.51°N, 89.03°W
Report Text: KJVL 241545Z 22003KT 2SM BR OVC003 11/09 A3005
Loading
Personal Weather Stations






























Interactive Weather Map
Tropical Storm Tracking
New forecast layout! Learn more

10-Day Weather Forecast

Advertisements
Track Severe Weather on mobile